sensor_id;sensor_type;location;lat;lon;timestamp;pressure;altitude;pressure_sealevel;temperature;humidity
22755;BME280;11544;42.020;23.094;2023-03-29T00:01:42;97658.13;;;3.85;51.64
22755;BME280;11544;42.020;23.094;2023-03-29T00:04:09;97656.41;;;3.75;51.55
22755;BME280;11544;42.020;23.094;2023-03-29T00:06:36;97652.94;;;3.82;51.10
22755;BME280;11544;42.020;23.094;2023-03-29T00:09:04;97660.69;;;3.82;51.28
22755;BME280;11544;42.020;23.094;2023-03-29T00:11:32;97649.50;;;3.89;51.05
22755;BME280;11544;42.020;23.094;2023-03-29T00:13:59;97659.84;;;3.45;51.71
22755;BME280;11544;42.020;23.094;2023-03-29T00:16:26;97664.97;;;3.75;51.41
22755;BME280;11544;42.020;23.094;2023-03-29T00:18:53;97664.16;;;3.46;51.96
22755;BME280;11544;42.020;23.094;2023-03-29T00:21:20;97654.69;;;3.74;51.74
22755;BME280;11544;42.020;23.094;2023-03-29T00:23:48;97658.13;;;3.53;52.29
22755;BME280;11544;42.020;23.094;2023-03-29T00:26:15;97655.56;;;3.47;51.71
22755;BME280;11544;42.020;23.094;2023-03-29T00:28:42;97661.56;;;3.52;52.08
22755;BME280;11544;42.020;23.094;2023-03-29T00:31:12;97672.75;;;3.37;52.28
22755;BME280;11544;42.020;23.094;2023-03-29T00:33:40;97664.16;;;3.46;52.22
22755;BME280;11544;42.020;23.094;2023-03-29T00:36:08;97675.31;;;3.12;52.46
22755;BME280;11544;42.020;23.094;2023-03-29T00:38:36;97652.97;;;3.42;52.23
22755;BME280;11544;42.020;23.094;2023-03-29T00:41:07;97652.97;;;3.44;51.70
22755;BME280;11544;42.020;23.094;2023-03-29T00:43:54;97656.41;;;3.27;51.91
22755;BME280;11544;42.020;23.094;2023-03-29T00:46:23;97657.28;;;3.31;52.39
22755;BME280;11544;42.020;23.094;2023-03-29T00:48:54;97652.97;;;3.48;51.76
22755;BME280;11544;42.020;23.094;2023-03-29T00:51:25;97662.44;;;3.48;51.73
22755;BME280;11544;42.020;23.094;2023-03-29T00:53:57;97661.56;;;3.49;51.61
22755;BME280;11544;42.020;23.094;2023-03-29T00:56:30;97666.66;;;2.87;52.41
22755;BME280;11544;42.020;23.094;2023-03-29T00:59:06;97663.28;;;3.31;51.47
22755;BME280;11544;42.020;23.094;2023-03-29T01:06:59;97672.72;;;3.15;52.30
22755;BME280;11544;42.020;23.094;2023-03-29T01:09:29;97678.75;;;3.10;52.16
22755;BME280;11544;42.020;23.094;2023-03-29T01:12:01;97678.72;;;3.21;52.19
22755;BME280;11544;42.020;23.094;2023-03-29T01:14:38;97677.03;;;3.18;51.72
22755;BME280;11544;42.020;23.094;2023-03-29T01:17:06;97679.59;;;3.20;51.57
22755;BME280;11544;42.020;23.094;2023-03-29T01:19:44;97679.59;;;3.21;52.14
22755;BME280;11544;42.020;23.094;2023-03-29T01:22:29;97679.63;;;3.38;52.30
22755;BME280;11544;42.020;23.094;2023-03-29T01:27:56;97692.44;;;3.04;52.34
22755;BME280;11544;42.020;23.094;2023-03-29T01:30:41;97694.16;;;2.96;52.65
22755;BME280;11544;42.020;23.094;2023-03-29T01:33:13;97698.38;;;2.74;52.86
22755;BME280;11544;42.020;23.094;2023-03-29T01:38:54;97705.34;;;3.09;52.62
22755;BME280;11544;42.020;23.094;2023-03-29T01:41:18;97702.78;;;3.15;52.10
22755;BME280;11544;42.020;23.094;2023-03-29T01:44:02;97700.19;;;2.98;52.35
22755;BME280;11544;42.020;23.094;2023-03-29T01:46:45;97701.09;;;3.29;52.60
22755;BME280;11544;42.020;23.094;2023-03-29T01:49:32;97700.22;;;3.18;52.29
22755;BME280;11544;42.020;23.094;2023-03-29T01:52:08;97708.81;;;3.28;51.94
22755;BME280;11544;42.020;23.094;2023-03-29T01:55:32;97708.81;;;3.22;51.34
22755;BME280;11544;42.020;23.094;2023-03-29T01:57:34;97711.41;;;3.38;51.34
22755;BME280;11544;42.020;23.094;2023-03-29T02:00:03;97699.38;;;3.48;51.84
22755;BME280;11544;42.020;23.094;2023-03-29T02:02:38;97701.13;;;3.62;51.61
22755;BME280;11544;42.020;23.094;2023-03-29T02:05:09;97700.22;;;3.70;50.79
22755;BME280;11544;42.020;23.094;2023-03-29T02:07:37;97699.38;;;3.68;50.56
22755;BME280;11544;42.020;23.094;2023-03-29T02:10:05;97698.53;;;3.62;50.22
22755;BME280;11544;42.020;23.094;2023-03-29T02:12:34;97708.84;;;3.51;51.04
22755;BME280;11544;42.020;23.094;2023-03-29T02:15:03;97709.69;;;3.84;50.62
22755;BME280;11544;42.020;23.094;2023-03-29T02:17:30;97713.13;;;3.76;49.78
22755;BME280;11544;42.020;23.094;2023-03-29T02:22:29;97716.56;;;3.48;50.98
22755;BME280;11544;42.020;23.094;2023-03-29T02:25:02;97715.69;;;3.41;51.28
22755;BME280;11544;42.020;23.094;2023-03-29T02:27:34;97718.28;;;3.47;51.13
22755;BME280;11544;42.020;23.094;2023-03-29T02:30:08;97720.84;;;3.41;51.06
22755;BME280;11544;42.020;23.094;2023-03-29T02:35:40;97725.97;;;3.30;50.38
22755;BME280;11544;42.020;23.094;2023-03-29T02:38:11;97729.44;;;3.32;50.59
22755;BME280;11544;42.020;23.094;2023-03-29T02:40:41;97729.41;;;3.23;50.69
22755;BME280;11544;42.020;23.094;2023-03-29T02:43:09;97726.84;;;3.23;51.20
22755;BME280;11544;42.020;23.094;2023-03-29T02:45:37;97738.03;;;3.56;50.29
22755;BME280;11544;42.020;23.094;2023-03-29T02:48:09;97743.19;;;3.51;50.25
22755;BME280;11544;42.020;23.094;2023-03-29T02:50:39;97742.34;;;3.43;49.77
22755;BME280;11544;42.020;23.094;2023-03-29T02:53:13;97756.09;;;3.60;49.44
22755;BME280;11544;42.020;23.094;2023-03-29T02:55:41;97756.97;;;3.64;50.00
22755;BME280;11544;42.020;23.094;2023-03-29T02:58:08;97760.41;;;3.55;50.84
22755;BME280;11544;42.020;23.094;2023-03-29T03:00:38;97761.25;;;3.53;51.75
22755;BME280;11544;42.020;23.094;2023-03-29T03:03:08;97767.28;;;3.50;51.76
22755;BME280;11544;42.020;23.094;2023-03-29T03:05:36;97786.16;;;3.51;51.65
22755;BME280;11544;42.020;23.094;2023-03-29T03:08:04;97764.59;;;3.16;51.22
22755;BME280;11544;42.020;23.094;2023-03-29T03:10:34;97771.50;;;3.19;51.29
22755;BME280;11544;42.020;23.094;2023-03-29T03:13:03;97770.66;;;3.40;51.09
22755;BME280;11544;42.020;23.094;2023-03-29T03:15:30;97774.09;;;3.27;51.20
22755;BME280;11544;42.020;23.094;2023-03-29T03:18:02;97783.59;;;3.54;51.23
22755;BME280;11544;42.020;23.094;2023-03-29T03:20:31;97784.41;;;3.34;51.47
22755;BME280;11544;42.020;23.094;2023-03-29T03:22:58;97787.00;;;3.37;51.16
22755;BME280;11544;42.020;23.094;2023-03-29T03:25:26;97781.03;;;3.77;50.31
22755;BME280;11544;42.020;23.094;2023-03-29T03:27:54;97791.28;;;3.34;51.09
22755;BME280;11544;42.020;23.094;2023-03-29T03:30:21;97799.06;;;3.55;50.75
22755;BME280;11544;42.020;23.094;2023-03-29T03:32:48;97796.47;;;3.46;50.76
22755;BME280;11544;42.020;23.094;2023-03-29T03:35:16;97798.19;;;3.44;50.58
22755;BME280;11544;42.020;23.094;2023-03-29T03:37:43;97795.59;;;3.44;51.12
22755;BME280;11544;42.020;23.094;2023-03-29T03:40:11;97797.25;;;3.14;50.80
22755;BME280;11544;42.020;23.094;2023-03-29T03:42:39;97806.75;;;3.32;51.02
22755;BME280;11544;42.020;23.094;2023-03-29T03:45:07;97801.59;;;3.37;50.38
22755;BME280;11544;42.020;23.094;2023-03-29T03:47:35;97813.63;;;3.29;50.12
22755;BME280;11544;42.020;23.094;2023-03-29T03:50:06;97803.31;;;3.36;50.36
22755;BME280;11544;42.020;23.094;2023-03-29T03:52:34;97813.63;;;3.33;50.70
22755;BME280;11544;42.020;23.094;2023-03-29T03:55:01;97808.50;;;3.38;50.65
22755;BME280;11544;42.020;23.094;2023-03-29T03:57:30;97814.53;;;3.48;50.76
22755;BME280;11544;42.020;23.094;2023-03-29T03:59:58;97815.41;;;3.50;50.68
22755;BME280;11544;42.020;23.094;2023-03-29T04:02:25;97823.13;;;3.45;50.82
22755;BME280;11544;42.020;23.094;2023-03-29T04:04:53;97812.81;;;3.51;50.72
22755;BME280;11544;42.020;23.094;2023-03-29T04:07:21;97825.69;;;3.56;50.46
22755;BME280;11544;42.020;23.094;2023-03-29T04:09:50;97820.50;;;3.42;50.90
22755;BME280;11544;42.020;23.094;2023-03-29T04:12:18;97823.94;;;3.47;51.10
22755;BME280;11544;42.020;23.094;2023-03-29T04:14:45;97823.97;;;3.44;50.79
22755;BME280;11544;42.020;23.094;2023-03-29T04:17:13;97826.59;;;3.59;49.91
22755;BME280;11544;42.020;23.094;2023-03-29T04:19:41;97823.13;;;3.50;48.73
22755;BME280;11544;42.020;23.094;2023-03-29T04:22:08;97833.41;;;3.36;48.29
22755;BME280;11544;42.020;23.094;2023-03-29T04:24:34;97830.91;;;3.77;48.33
22755;BME280;11544;42.020;23.094;2023-03-29T04:27:02;97834.31;;;3.61;48.84
22755;BME280;11544;42.020;23.094;2023-03-29T04:29:29;97831.75;;;3.72;48.41
22755;BME280;11544;42.020;23.094;2023-03-29T04:31:55;97836.00;;;3.45;48.07
22755;BME280;11544;42.020;23.094;2023-03-29T04:34:23;97829.91;;;3.25;48.31
22755;BME280;11544;42.020;23.094;2023-03-29T04:36:54;97828.31;;;3.73;47.86
22755;BME280;11544;42.020;23.094;2023-03-29T04:39:21;97826.59;;;3.75;48.31
22755;BME280;11544;42.020;23.094;2023-03-29T04:41:48;97839.38;;;3.29;48.27
22755;BME280;11544;42.020;23.094;2023-03-29T04:44:15;97841.09;;;3.33;48.21
22755;BME280;11544;42.020;23.094;2023-03-29T04:46:42;97839.38;;;3.32;47.93
22755;BME280;11544;42.020;23.094;2023-03-29T04:49:09;97844.59;;;3.43;47.72
22755;BME280;11544;42.020;23.094;2023-03-29T04:51:37;97841.13;;;3.42;47.91
22755;BME280;11544;42.020;23.094;2023-03-29T04:54:04;97849.75;;;3.52;47.86
22755;BME280;11544;42.020;23.094;2023-03-29T04:56:31;97851.50;;;3.60;47.66
22755;BME280;11544;42.020;23.094;2023-03-29T04:58:58;97842.06;;;3.59;47.56
22755;BME280;11544;42.020;23.094;2023-03-29T05:01:27;97840.31;;;3.63;47.75
22755;BME280;11544;42.020;23.094;2023-03-29T05:03:54;97840.28;;;3.49;47.60
22755;BME280;11544;42.020;23.094;2023-03-29T05:06:22;97845.41;;;3.40;47.57
22755;BME280;11544;42.020;23.094;2023-03-29T05:08:49;97839.44;;;3.43;47.59
22755;BME280;11544;42.020;23.094;2023-03-29T05:11:16;97842.03;;;3.66;47.80
22755;BME280;11544;42.020;23.094;2023-03-29T05:13:45;97839.41;;;3.41;47.67
22755;BME280;11544;42.020;23.094;2023-03-29T05:16:12;97842.00;;;3.46;48.26
22755;BME280;11544;42.020;23.094;2023-03-29T05:18:39;97852.31;;;3.44;48.05
22755;BME280;11544;42.020;23.094;2023-03-29T05:21:06;97852.25;;;3.23;48.23
22755;BME280;11544;42.020;23.094;2023-03-29T05:23:33;97849.66;;;3.26;48.64
22755;BME280;11544;42.020;23.094;2023-03-29T05:26:00;97858.31;;;3.42;48.94
22755;BME280;11544;42.020;23.094;2023-03-29T05:28:26;97853.09;;;3.25;48.72
22755;BME280;11544;42.020;23.094;2023-03-29T05:31:01;97854.84;;;3.30;49.10
22755;BME280;11544;42.020;23.094;2023-03-29T05:33:31;97853.28;;;3.92;48.77
22755;BME280;11544;42.020;23.094;2023-03-29T05:36:01;97854.13;;;4.63;46.56
22755;BME280;11544;42.020;23.094;2023-03-29T05:38:28;97844.50;;;5.10;46.18
22755;BME280;11544;42.020;23.094;2023-03-29T05:40:55;97844.34;;;5.51;45.28
22755;BME280;11544;42.020;23.094;2023-03-29T05:43:23;97849.44;;;5.65;44.99
22755;BME280;11544;42.020;23.094;2023-03-29T05:45:53;97853.03;;;5.40;44.77
22755;BME280;11544;42.020;23.094;2023-03-29T05:48:21;97858.19;;;5.40;43.85
22755;BME280;11544;42.020;23.094;2023-03-29T05:50:50;97864.38;;;4.96;44.89
22755;BME280;11544;42.020;23.094;2023-03-29T06:11:56;97895.78;;;6.07;45.95
22755;BME280;11544;42.020;23.094;2023-03-29T06:14:25;97891.56;;;7.02;45.09
22755;BME280;11544;42.020;23.094;2023-03-29T06:16:52;97907.16;;;6.94;43.74
22755;BME280;11544;42.020;23.094;2023-03-29T06:19:20;97905.34;;;5.92;42.72
22755;BME280;11544;42.020;23.094;2023-03-29T06:21:54;97914.00;;;5.85;42.46
22755;BME280;11544;42.020;23.094;2023-03-29T06:24:35;97911.41;;;5.96;42.95
22755;BME280;11544;42.020;23.094;2023-03-29T06:27:07;97912.78;;;6.45;43.11
22755;BME280;11544;42.020;23.094;2023-03-29T06:29:48;97930.34;;;6.03;42.14
22755;BME280;11544;42.020;23.094;2023-03-29T06:32:24;97934.16;;;4.83;43.29
22755;BME280;11544;42.020;23.094;2023-03-29T06:35:06;97939.28;;;5.20;44.36
22755;BME280;11544;42.020;23.094;2023-03-29T06:37:37;97934.94;;;5.28;43.63
22755;BME280;11544;42.020;23.094;2023-03-29T06:40:16;97954.84;;;4.68;45.09
22755;BME280;11544;42.020;23.094;2023-03-29T06:43:05;97959.16;;;4.40;48.24
22755;BME280;11544;42.020;23.094;2023-03-29T06:45:50;97960.00;;;4.99;47.63
22755;BME280;11544;42.020;23.094;2023-03-29T06:48:20;97961.72;;;4.60;49.08
22755;BME280;11544;42.020;23.094;2023-03-29T06:50:47;97958.03;;;3.52;51.07
22755;BME280;11544;42.020;23.094;2023-03-29T06:53:19;97964.22;;;3.95;50.98
22755;BME280;11544;42.020;23.094;2023-03-29T06:55:46;97962.56;;;4.39;50.25
22755;BME280;11544;42.020;23.094;2023-03-29T06:58:15;97965.97;;;4.12;51.13
22755;BME280;11544;42.020;23.094;2023-03-29T07:01:00;97959.88;;;3.90;51.13
22755;BME280;11544;42.020;23.094;2023-03-29T07:03:33;97945.34;;;4.98;50.96
22755;BME280;11544;42.020;23.094;2023-03-29T07:06:02;97953.88;;;5.38;49.00
22755;BME280;11544;42.020;23.094;2023-03-29T07:09:05;97952.25;;;4.99;47.67
22755;BME280;11544;42.020;23.094;2023-03-29T07:11:38;97954.72;;;5.42;48.49
22755;BME280;11544;42.020;23.094;2023-03-29T07:14:08;97943.41;;;7.02;46.89
22755;BME280;11544;42.020;23.094;2023-03-29T07:16:38;97947.91;;;5.10;45.98
22755;BME280;11544;42.020;23.094;2023-03-29T07:19:05;97947.88;;;6.86;46.26
22755;BME280;11544;42.020;23.094;2023-03-29T07:21:31;97929.38;;;7.19;45.30
22755;BME280;11544;42.020;23.094;2023-03-29T07:24:08;97931.47;;;6.85;43.84
22755;BME280;11544;42.020;23.094;2023-03-29T07:26:37;97935.84;;;6.75;43.39
22755;BME280;11544;42.020;23.094;2023-03-29T07:29:12;97938.13;;;5.97;43.98
22755;BME280;11544;42.020;23.094;2023-03-29T07:31:39;97952.22;;;5.09;44.15
22755;BME280;11544;42.020;23.094;2023-03-29T07:34:07;97938.84;;;6.26;43.63
22755;BME280;11544;42.020;23.094;2023-03-29T07:36:38;97935.56;;;7.06;42.51
22755;BME280;11544;42.020;23.094;2023-03-29T07:39:05;97934.38;;;7.39;41.50
22755;BME280;11544;42.020;23.094;2023-03-29T07:41:32;97932.53;;;8.16;44.48
22755;BME280;11544;42.020;23.094;2023-03-29T07:43:59;97935.28;;;8.65;45.48
22755;BME280;11544;42.020;23.094;2023-03-29T07:46:32;97930.78;;;7.50;40.04
22755;BME280;11544;42.020;23.094;2023-03-29T07:48:59;97933.75;;;6.12;40.71
22755;BME280;11544;42.020;23.094;2023-03-29T07:51:32;97929.28;;;6.34;42.17
22755;BME280;11544;42.020;23.094;2023-03-29T07:54:01;97929.69;;;6.90;42.39
22755;BME280;11544;42.020;23.094;2023-03-29T07:56:36;97923.06;;;7.45;40.80
22755;BME280;11544;42.020;23.094;2023-03-29T07:59:03;97922.03;;;6.75;41.67
22755;BME280;11544;42.020;23.094;2023-03-29T08:01:36;97935.28;;;6.40;42.35
22755;BME280;11544;42.020;23.094;2023-03-29T08:04:05;97926.53;;;6.54;41.86
22755;BME280;11544;42.020;23.094;2023-03-29T08:06:36;97922.81;;;7.65;41.19
22755;BME280;11544;42.020;23.094;2023-03-29T08:09:05;97910.19;;;7.37;41.32
22755;BME280;11544;42.020;23.094;2023-03-29T08:11:33;97909.44;;;7.25;39.13
22755;BME280;11544;42.020;23.094;2023-03-29T08:14:05;97919.56;;;6.64;39.69
22755;BME280;11544;42.020;23.094;2023-03-29T08:16:32;97916.53;;;6.05;40.24
22755;BME280;11544;42.020;23.094;2023-03-29T08:19:00;97919.34;;;5.51;41.59
22755;BME280;11544;42.020;23.094;2023-03-29T08:21:27;97912.66;;;6.60;40.75
22755;BME280;11544;42.020;23.094;2023-03-29T08:23:54;97903.31;;;7.35;39.04
22755;BME280;11544;42.020;23.094;2023-03-29T08:26:21;97903.19;;;7.44;38.49
22755;BME280;11544;42.020;23.094;2023-03-29T08:28:48;97905.91;;;8.01;37.37
22755;BME280;11544;42.020;23.094;2023-03-29T08:31:21;97906.25;;;7.75;38.49
22755;BME280;11544;42.020;23.094;2023-03-29T08:33:48;97896.94;;;8.22;37.38
22755;BME280;11544;42.020;23.094;2023-03-29T08:36:18;97893.69;;;8.65;36.73
22755;BME280;11544;42.020;23.094;2023-03-29T08:38:45;97902.94;;;8.26;37.66
22755;BME280;11544;42.020;23.094;2023-03-29T08:44:35;97887.09;;;9.41;35.36
22755;BME280;11544;42.020;23.094;2023-03-29T08:49:53;97893.84;;;8.56;36.17
22755;BME280;11544;42.020;23.094;2023-03-29T08:52:36;97902.22;;;8.16;36.20
22755;BME280;11544;42.020;23.094;2023-03-29T08:55:10;97890.00;;;8.21;35.94
22755;BME280;11544;42.020;23.094;2023-03-29T08:57:49;97871.69;;;9.30;35.33
22755;BME280;11544;42.020;23.094;2023-03-29T09:03:20;97890.97;;;7.54;36.57
22755;BME280;11544;42.020;23.094;2023-03-29T09:06:09;97874.19;;;8.37;34.37
22755;BME280;11544;42.020;23.094;2023-03-29T09:08:45;97868.84;;;8.47;36.16
22755;BME280;11544;42.020;23.094;2023-03-29T09:11:30;97861.03;;;8.97;35.79
22755;BME280;11544;42.020;23.094;2023-03-29T09:17:54;97860.03;;;8.58;34.71
22755;BME280;11544;42.020;23.094;2023-03-29T09:20:35;97849.44;;;9.17;34.43
22755;BME280;11544;42.020;23.094;2023-03-29T09:25:55;97844.84;;;10.09;34.17
22755;BME280;11544;42.020;23.094;2023-03-29T09:28:32;97852.78;;;10.03;32.25
22755;BME280;11544;42.020;23.094;2023-03-29T09:31:33;97850.31;;;9.14;32.99
22755;BME280;11544;42.020;23.094;2023-03-29T09:34:13;97837.28;;;9.59;32.64
22755;BME280;11544;42.020;23.094;2023-03-29T09:36:53;97842.66;;;9.90;32.08
22755;BME280;11544;42.020;23.094;2023-03-29T09:39:21;97848.72;;;9.52;33.11
22755;BME280;11544;42.020;23.094;2023-03-29T09:42:04;97844.19;;;10.36;33.51
22755;BME280;11544;42.020;23.094;2023-03-29T09:44:41;97845.66;;;10.48;32.06
22755;BME280;11544;42.020;23.094;2023-03-29T09:48:01;97847.41;;;9.71;31.32
22755;BME280;11544;42.020;23.094;2023-03-29T09:50:36;97846.22;;;9.47;31.80
22755;BME280;11544;42.020;23.094;2023-03-29T09:53:04;97844.81;;;9.71;31.77
22755;BME280;11544;42.020;23.094;2023-03-29T09:55:32;97846.69;;;9.23;31.50
22755;BME280;11544;42.020;23.094;2023-03-29T09:58:14;97828.94;;;10.57;32.11
22755;BME280;11544;42.020;23.094;2023-03-29T10:00:45;97833.38;;;9.38;31.19
22755;BME280;11544;42.020;23.094;2023-03-29T10:03:23;97836.38;;;9.60;30.79
22755;BME280;11544;42.020;23.094;2023-03-29T10:05:56;97828.19;;;9.77;32.30
22755;BME280;11544;42.020;23.094;2023-03-29T10:08:49;97818.34;;;11.27;42.14
22755;BME280;11544;42.020;23.094;2023-03-29T10:13:49;97811.84;;;10.79;30.33
22755;BME280;11544;42.020;23.094;2023-03-29T10:16:36;97809.41;;;10.72;31.30
22755;BME280;11544;42.020;23.094;2023-03-29T10:19:22;97813.97;;;9.53;30.79
22755;BME280;11544;42.020;23.094;2023-03-29T10:21:50;97802.97;;;9.40;31.26
22755;BME280;11544;42.020;23.094;2023-03-29T10:24:23;97789.09;;;10.16;30.37
22755;BME280;11544;42.020;23.094;2023-03-29T10:26:58;97786.72;;;9.68;31.16
22755;BME280;11544;42.020;23.094;2023-03-29T10:29:41;97772.28;;;10.29;32.39
22755;BME280;11544;42.020;23.094;2023-03-29T10:32:32;97776.41;;;10.38;31.48
22755;BME280;11544;42.020;23.094;2023-03-29T10:35:23;97762.47;;;11.03;31.58
22755;BME280;11544;42.020;23.094;2023-03-29T10:37:54;97761.56;;;9.68;29.89
22755;BME280;11544;42.020;23.094;2023-03-29T10:40:41;97749.25;;;10.79;30.92
22755;BME280;11544;42.020;23.094;2023-03-29T10:45:43;97738.88;;;10.45;29.36
22755;BME280;11544;42.020;23.094;2023-03-29T10:48:15;97740.88;;;9.64;29.24
22755;BME280;11544;42.020;23.094;2023-03-29T10:50:48;97722.13;;;10.20;28.81
22755;BME280;11544;42.020;23.094;2023-03-29T10:53:31;97728.81;;;10.30;28.44
22755;BME280;11544;42.020;23.094;2023-03-29T10:56:23;97727.91;;;10.32;28.80
22755;BME280;11544;42.020;23.094;2023-03-29T10:59:26;97719.56;;;10.52;30.18
22755;BME280;11544;42.020;23.094;2023-03-29T11:08:15;97701.19;;;11.18;27.89
22755;BME280;11544;42.020;23.094;2023-03-29T11:22:28;97701.75;;;11.28;28.37
22755;BME280;11544;42.020;23.094;2023-03-29T11:25:19;97678.91;;;11.06;27.82
22755;BME280;11544;42.020;23.094;2023-03-29T11:28:29;97688.84;;;10.64;26.55
22755;BME280;11544;42.020;23.094;2023-03-29T11:31:28;97684.66;;;10.88;26.28
22755;BME280;11544;42.020;23.094;2023-03-29T11:37:21;97659.47;;;11.44;26.81
22755;BME280;11544;42.020;23.094;2023-03-29T11:40:15;97677.97;;;11.65;27.25
22755;BME280;11544;42.020;23.094;2023-03-29T11:46:56;97662.88;;;11.18;26.43
22755;BME280;11544;42.020;23.094;2023-03-29T11:52:48;97665.81;;;11.08;26.73
22755;BME280;11544;42.020;23.094;2023-03-29T11:59:21;97652.19;;;11.54;25.39
22755;BME280;11544;42.020;23.094;2023-03-29T12:10:19;97639.59;;;12.44;27.18
22755;BME280;11544;42.020;23.094;2023-03-29T12:12:56;97644.44;;;12.29;26.26
22755;BME280;11544;42.020;23.094;2023-03-29T12:15:54;97645.88;;;11.88;26.32
22755;BME280;11544;42.020;23.094;2023-03-29T12:18:40;97643.44;;;12.08;26.02
22755;BME280;11544;42.020;23.094;2023-03-29T12:21:17;97656.16;;;11.93;27.08
22755;BME280;11544;42.020;23.094;2023-03-29T12:23:48;97648.03;;;12.27;27.59
22755;BME280;11544;42.020;23.094;2023-03-29T12:37:43;97647.53;;;11.36;25.47
22755;BME280;11544;42.020;23.094;2023-03-29T12:40:15;97653.34;;;10.89;26.19
22755;BME280;11544;42.020;23.094;2023-03-29T12:43:06;97641.28;;;11.41;26.72
22755;BME280;11544;42.020;23.094;2023-03-29T12:45:56;97641.88;;;11.23;26.42
22755;BME280;11544;42.020;23.094;2023-03-29T12:48:58;97627.66;;;11.85;26.76
22755;BME280;11544;42.020;23.094;2023-03-29T13:14:12;97614.56;;;11.86;25.51
22755;BME280;11544;42.020;23.094;2023-03-29T13:16:42;97628.53;;;11.59;25.67
22755;BME280;11544;42.020;23.094;2023-03-29T13:27:44;97632.00;;;11.59;25.75
22755;BME280;11544;42.020;23.094;2023-03-29T13:38:47;97615.03;;;11.46;25.37
22755;BME280;11544;42.020;23.094;2023-03-29T13:41:47;97617.69;;;11.71;25.78
22755;BME280;11544;42.020;23.094;2023-03-29T13:44:26;97599.56;;;11.40;25.58
22755;BME280;11544;42.020;23.094;2023-03-29T13:52:40;97618.47;;;11.48;25.02
22755;BME280;11544;42.020;23.094;2023-03-29T13:55:21;97611.47;;;11.49;24.73
22755;BME280;11544;42.020;23.094;2023-03-29T13:58:31;97615.53;;;11.84;24.80
22755;BME280;11544;42.020;23.094;2023-03-29T14:01:10;97613.13;;;11.51;24.63
22755;BME280;11544;42.020;23.094;2023-03-29T14:03:44;97628.03;;;11.48;24.01
22755;BME280;11544;42.020;23.094;2023-03-29T14:06:26;97630.22;;;11.33;24.73
22755;BME280;11544;42.020;23.094;2023-03-29T14:09:03;97624.66;;;11.17;23.90
22755;BME280;11544;42.020;23.094;2023-03-29T14:11:33;97624.97;;;11.07;24.07
22755;BME280;11544;42.020;23.094;2023-03-29T14:14:03;97621.53;;;11.33;24.32
22755;BME280;11544;42.020;23.094;2023-03-29T14:16:37;97611.88;;;11.90;23.19
22755;BME280;11544;42.020;23.094;2023-03-29T14:19:14;97622.75;;;11.49;23.37
22755;BME280;11544;42.020;23.094;2023-03-29T14:21:45;97618.31;;;11.53;23.98
22755;BME280;11544;42.020;23.094;2023-03-29T14:24:25;97623.97;;;11.39;23.16
22755;BME280;11544;42.020;23.094;2023-03-29T14:26:53;97621.25;;;11.15;23.09
22755;BME280;11544;42.020;23.094;2023-03-29T14:29:50;97622.91;;;11.44;23.06
22755;BME280;11544;42.020;23.094;2023-03-29T14:32:29;97629.53;;;11.55;22.93
22755;BME280;11544;42.020;23.094;2023-03-29T14:35:04;97624.50;;;11.22;22.72
22755;BME280;11544;42.020;23.094;2023-03-29T14:37:31;97627.81;;;11.27;22.67
22755;BME280;11544;42.020;23.094;2023-03-29T14:40:02;97631.41;;;11.51;22.62
22755;BME280;11544;42.020;23.094;2023-03-29T14:42:49;97639.13;;;11.54;23.04
22755;BME280;11544;42.020;23.094;2023-03-29T14:45:19;97636.84;;;11.72;23.43
22755;BME280;11544;42.020;23.094;2023-03-29T14:47:49;97638.56;;;11.44;22.60
22755;BME280;11544;42.020;23.094;2023-03-29T14:50:30;97630.66;;;11.19;22.81
22755;BME280;11544;42.020;23.094;2023-03-29T14:52:58;97640.72;;;11.32;22.49
22755;BME280;11544;42.020;23.094;2023-03-29T14:55:27;97629.31;;;11.62;23.06
22755;BME280;11544;42.020;23.094;2023-03-29T14:58:22;97643.50;;;11.54;22.67
22755;BME280;11544;42.020;23.094;2023-03-29T15:00:52;97652.28;;;11.51;22.93
22755;BME280;11544;42.020;23.094;2023-03-29T15:03:26;97654.84;;;10.96;23.01
22755;BME280;11544;42.020;23.094;2023-03-29T15:05:58;97649.59;;;11.26;22.72
22755;BME280;11544;42.020;23.094;2023-03-29T15:08:45;97638.91;;;11.34;22.98
22755;BME280;11544;42.020;23.094;2023-03-29T15:11:32;97648.84;;;11.22;22.14
22755;BME280;11544;42.020;23.094;2023-03-29T15:14:03;97656.00;;;11.44;22.08
22755;BME280;11544;42.020;23.094;2023-03-29T15:16:39;97658.09;;;11.33;22.51
22755;BME280;11544;42.020;23.094;2023-03-29T15:19:12;97663.41;;;11.01;22.50
22755;BME280;11544;42.020;23.094;2023-03-29T15:21:42;97650.06;;;11.11;22.48
22755;BME280;11544;42.020;23.094;2023-03-29T15:24:27;97667.00;;;11.26;23.04
22755;BME280;11544;42.020;23.094;2023-03-29T15:27:16;97666.56;;;10.81;23.40
22755;BME280;11544;42.020;23.094;2023-03-29T15:29:45;97665.34;;;10.95;23.81
22755;BME280;11544;42.020;23.094;2023-03-29T15:32:23;97665.38;;;10.93;23.56
22755;BME280;11544;42.020;23.094;2023-03-29T15:35:21;97672.06;;;10.72;23.45
22755;BME280;11544;42.020;23.094;2023-03-29T15:37:49;97677.81;;;10.54;24.17
22755;BME280;11544;42.020;23.094;2023-03-29T15:40:23;97667.97;;;10.64;23.38
22755;BME280;11544;42.020;23.094;2023-03-29T15:42:53;97671.47;;;10.63;23.29
22755;BME280;11544;42.020;23.094;2023-03-29T15:45:23;97672.00;;;10.44;24.47
22755;BME280;11544;42.020;23.094;2023-03-29T15:47:51;97668.66;;;10.70;24.06
22755;BME280;11544;42.020;23.094;2023-03-29T15:50:19;97667.03;;;10.66;24.16
22755;BME280;11544;42.020;23.094;2023-03-29T15:52:47;97679.13;;;10.69;25.07
22755;BME280;11544;42.020;23.094;2023-03-29T15:55:14;97675.81;;;10.64;24.57
22755;BME280;11544;42.020;23.094;2023-03-29T15:57:44;97679.22;;;10.66;24.26
22755;BME280;11544;42.020;23.094;2023-03-29T16:00:14;97685.44;;;10.60;23.85
22755;BME280;11544;42.020;23.094;2023-03-29T16:02:43;97682.94;;;10.57;23.45
22755;BME280;11544;42.020;23.094;2023-03-29T16:05:11;97683.53;;;10.35;23.70